createdAt,value
2017-11-10T00:00:11.677Z,7.57
2017-11-10T00:01:12.537Z,7.56
2017-11-10T00:02:11.889Z,7.57
2017-11-10T00:03:10.458Z,7.58
2017-11-10T00:04:12.620Z,7.58
2017-11-10T00:05:10.754Z,7.57
2017-11-10T00:06:11.354Z,7.58
2017-11-10T00:07:21.674Z,7.58
2017-11-10T00:08:10.855Z,7.58
2017-11-10T00:09:09.918Z,7.58
2017-11-10T00:10:10.025Z,7.58
2017-11-10T00:11:14.694Z,7.60
2017-11-10T00:12:11.210Z,7.57
2017-11-10T00:13:12.085Z,7.58
2017-11-10T00:14:10.990Z,7.58
2017-11-10T00:15:10.858Z,7.58
2017-11-10T00:16:11.114Z,7.60
2017-11-10T00:17:11.752Z,7.60
2017-11-10T00:18:13.865Z,7.58
2017-11-10T00:19:11.609Z,7.60
2017-11-10T00:20:16.346Z,7.60
2017-11-10T00:21:11.798Z,7.60
2017-11-10T00:22:12.009Z,7.60
2017-11-10T00:23:11.715Z,7.60
2017-11-10T00:24:11.670Z,7.60
2017-11-10T00:25:11.591Z,7.61
2017-11-10T00:26:11.202Z,7.61
2017-11-10T00:27:10.671Z,7.60
2017-11-10T00:28:11.510Z,7.61
2017-11-10T00:29:11.590Z,7.61
2017-11-10T00:30:10.735Z,7.61
2017-11-10T00:31:10.879Z,7.61
2017-11-10T00:32:10.170Z,7.60
2017-11-10T00:33:11.956Z,7.60
2017-11-10T00:34:12.053Z,7.60
2017-11-10T00:35:11.486Z,7.60
2017-11-10T00:36:10.941Z,7.60
2017-11-10T00:37:12.186Z,7.61
2017-11-10T00:38:11.611Z,7.60
2017-11-10T00:39:11.073Z,7.61
2017-11-10T00:40:11.583Z,7.61
2017-11-10T00:41:10.950Z,7.61
2017-11-10T00:42:12.058Z,7.61
2017-11-10T00:43:12.023Z,7.61
2017-11-10T00:44:11.328Z,7.61
2017-11-10T00:45:11.532Z,7.61
2017-11-10T00:46:11.672Z,7.61
2017-11-10T00:47:11.614Z,7.61
2017-11-10T00:48:11.436Z,7.61
2017-11-10T00:49:11.387Z,7.61
2017-11-10T00:50:12.592Z,7.61
2017-11-10T00:51:11.282Z,7.61
2017-11-10T00:52:11.192Z,7.63
2017-11-10T00:53:11.817Z,7.61
2017-11-10T00:54:11.291Z,7.63
2017-11-10T00:55:10.918Z,7.61
2017-11-10T00:56:11.800Z,7.61
2017-11-10T00:57:11.257Z,7.63
2017-11-10T00:58:11.113Z,7.61
2017-11-10T00:59:11.174Z,7.63
2017-11-10T01:00:10.881Z,7.61
2017-11-10T01:01:10.303Z,7.63
2017-11-10T01:02:11.219Z,7.61
2017-11-10T01:03:16.099Z,7.61
2017-11-10T01:04:11.166Z,7.61
2017-11-10T01:05:11.390Z,7.61
2017-11-10T01:06:11.259Z,7.61
2017-11-10T01:07:10.490Z,7.61
2017-11-10T01:08:11.256Z,7.61
2017-11-10T01:09:11.381Z,7.61
2017-11-10T01:10:11.926Z,7.61
2017-11-10T01:11:11.748Z,7.61
2017-11-10T01:12:10.918Z,7.60
2017-11-10T01:13:11.109Z,7.61
2017-11-10T01:14:11.668Z,7.61
2017-11-10T01:15:16.669Z,7.60
2017-11-10T01:16:11.248Z,7.60
2017-11-10T01:17:11.854Z,7.60
2017-11-10T01:18:11.827Z,7.61
2017-11-10T01:19:11.484Z,7.60
2017-11-10T01:20:11.632Z,7.58
2017-11-10T01:21:11.713Z,7.58
2017-11-10T01:22:12.092Z,7.60
2017-11-10T01:23:10.252Z,7.60
2017-11-10T01:24:11.488Z,7.61
2017-11-10T01:25:10.620Z,7.60
2017-11-10T01:26:11.146Z,7.60
2017-11-10T01:27:10.687Z,7.60
2017-11-10T01:28:11.446Z,7.61
2017-11-10T01:29:11.895Z,7.60
2017-11-10T01:30:10.558Z,7.60
2017-11-10T01:31:11.119Z,7.60
2017-11-10T01:32:10.896Z,7.60
2017-11-10T01:33:10.483Z,7.61
2017-11-10T01:34:10.481Z,7.61
2017-11-10T01:35:11.659Z,7.61
2017-11-10T01:36:11.039Z,7.60
2017-11-10T01:37:10.554Z,7.61
2017-11-10T01:38:10.845Z,7.61
2017-11-10T01:39:10.404Z,7.60
2017-11-10T01:40:10.968Z,7.60
2017-11-10T01:41:12.217Z,7.60
2017-11-10T01:42:10.804Z,7.58
2017-11-10T01:43:11.009Z,7.60
2017-11-10T01:44:11.340Z,7.60
2017-11-10T01:45:10.931Z,7.60
2017-11-10T01:46:10.861Z,7.60
2017-11-10T01:47:10.961Z,7.60
2017-11-10T01:48:11.130Z,7.58
2017-11-10T01:49:11.047Z,7.60
2017-11-10T01:50:11.133Z,7.60
2017-11-10T01:51:10.685Z,7.60
2017-11-10T01:52:11.038Z,7.60
2017-11-10T01:53:10.479Z,7.61
2017-11-10T01:54:10.480Z,7.60
2017-11-10T01:55:10.823Z,7.60
2017-11-10T01:56:11.963Z,7.61
2017-11-10T01:57:11.748Z,7.61
2017-11-10T01:58:11.695Z,7.58
2017-11-10T01:59:11.085Z,7.58
2017-11-10T02:00:11.502Z,7.58
2017-11-10T02:01:11.538Z,7.60
2017-11-10T02:02:11.414Z,7.58
2017-11-10T02:03:11.612Z,7.60
2017-11-10T02:04:11.163Z,7.60
2017-11-10T02:05:11.339Z,7.60
2017-11-10T02:06:10.928Z,7.58
2017-11-10T02:07:11.891Z,7.60
2017-11-10T02:08:10.391Z,7.58
2017-11-10T02:09:12.216Z,7.58
2017-11-10T02:10:12.110Z,7.60
2017-11-10T02:11:11.394Z,7.60
2017-11-10T02:12:11.501Z,7.60
2017-11-10T02:13:11.813Z,7.60
2017-11-10T02:14:11.057Z,7.60
2017-11-10T02:15:11.413Z,7.61
2017-11-10T02:16:10.534Z,7.60
2017-11-10T02:17:12.346Z,7.60
2017-11-10T02:18:10.520Z,7.61
2017-11-10T02:19:11.065Z,7.60
2017-11-10T02:20:10.871Z,7.61
2017-11-10T02:21:10.029Z,7.60
2017-11-10T02:22:10.260Z,7.61
2017-11-10T02:23:10.260Z,7.61
2017-11-10T02:24:10.903Z,7.61
2017-11-10T02:25:11.334Z,7.63
2017-11-10T02:26:10.729Z,7.61
2017-11-10T02:27:10.721Z,7.60
2017-11-10T02:28:10.671Z,7.61
2017-11-10T02:29:10.582Z,7.60
2017-11-10T02:30:10.888Z,7.61
2017-11-10T02:31:10.414Z,7.63
2017-11-10T02:32:10.520Z,7.63
2017-11-10T02:33:10.387Z,7.66
2017-11-10T02:34:10.749Z,7.61
2017-11-10T02:35:10.602Z,7.61
2017-11-10T02:36:11.175Z,7.61
2017-11-10T02:37:10.502Z,7.61
2017-11-10T02:38:10.426Z,7.61
2017-11-10T02:39:10.529Z,7.63
2017-11-10T02:40:10.498Z,7.63
2017-11-10T02:41:10.431Z,7.61
2017-11-10T02:42:10.742Z,7.63
2017-11-10T02:43:10.644Z,7.66
2017-11-10T02:44:09.755Z,7.63
2017-11-10T02:45:11.112Z,7.66
2017-11-10T02:46:10.129Z,7.66
2017-11-10T02:47:11.190Z,7.66
2017-11-10T02:48:10.689Z,7.66
2017-11-10T02:49:10.933Z,7.63
2017-11-10T02:50:10.080Z,7.66
2017-11-10T02:51:10.283Z,7.67
2017-11-10T02:52:11.134Z,7.69
2017-11-10T02:53:10.034Z,7.66
2017-11-10T02:54:09.908Z,7.67
2017-11-10T02:55:10.550Z,7.67
2017-11-10T02:56:10.808Z,7.67
2017-11-10T02:57:11.279Z,7.67
2017-11-10T02:58:10.546Z,7.67
2017-11-10T02:59:10.486Z,7.67
2017-11-10T03:00:10.005Z,7.69
2017-11-10T03:01:10.364Z,7.67
2017-11-10T03:02:10.694Z,7.69
2017-11-10T03:03:11.411Z,7.69
2017-11-10T03:04:10.669Z,7.70
2017-11-10T03:05:10.636Z,7.69
2017-11-10T03:06:10.667Z,7.70
2017-11-10T03:07:10.526Z,7.70
2017-11-10T03:08:11.107Z,7.70
2017-11-10T03:09:10.903Z,7.72
2017-11-10T03:10:09.768Z,7.70
2017-11-10T03:11:11.033Z,7.70
2017-11-10T03:12:10.416Z,7.72
2017-11-10T03:13:10.477Z,7.70
2017-11-10T03:14:10.827Z,7.72
2017-11-10T03:15:10.002Z,7.72
2017-11-10T03:16:10.428Z,7.72
2017-11-10T03:17:10.733Z,7.72
2017-11-10T03:18:10.654Z,7.72
2017-11-10T03:19:11.186Z,7.73
2017-11-10T03:20:10.246Z,7.73
2017-11-10T03:21:10.550Z,7.73
2017-11-10T03:22:10.833Z,7.75
2017-11-10T03:23:11.269Z,7.75
2017-11-10T03:24:10.255Z,7.75
2017-11-10T03:25:10.999Z,7.75
2017-11-10T03:26:09.907Z,7.75
2017-11-10T03:27:09.809Z,7.76
2017-11-10T03:28:10.162Z,7.75
2017-11-10T03:29:10.217Z,7.75
2017-11-10T03:30:11.023Z,7.76
2017-11-10T03:31:10.584Z,7.76
2017-11-10T03:32:10.720Z,7.76
2017-11-10T03:33:10.955Z,7.76
2017-11-10T03:34:10.110Z,7.77
2017-11-10T03:35:10.303Z,7.77
2017-11-10T03:36:10.213Z,7.79
2017-11-10T03:37:10.645Z,7.79
2017-11-10T03:38:10.871Z,7.79
2017-11-10T03:39:11.125Z,7.79
2017-11-10T03:40:10.980Z,7.80
2017-11-10T03:41:10.171Z,7.80
2017-11-10T03:42:10.613Z,7.82
2017-11-10T03:43:10.480Z,7.82
2017-11-10T03:44:10.891Z,7.80
2017-11-10T03:45:10.613Z,7.80
2017-11-10T03:46:10.502Z,7.80
2017-11-10T03:47:10.883Z,7.82
2017-11-10T03:48:10.923Z,7.82
2017-11-10T03:49:10.987Z,7.82
2017-11-10T03:50:10.552Z,7.82
2017-11-10T03:51:10.460Z,7.83
2017-11-10T03:52:10.471Z,7.82
2017-11-10T03:53:10.526Z,7.82
2017-11-10T03:54:11.053Z,7.82
2017-11-10T03:55:10.538Z,7.83
2017-11-10T03:56:10.535Z,7.83
2017-11-10T03:57:10.882Z,7.85
2017-11-10T03:58:09.967Z,7.85
2017-11-10T03:59:10.364Z,7.85
2017-11-10T04:00:10.540Z,7.85
2017-11-10T04:01:10.572Z,7.85
2017-11-10T04:02:10.964Z,7.85
2017-11-10T04:03:10.649Z,7.85
2017-11-10T04:04:10.748Z,7.85
2017-11-10T04:05:11.530Z,7.87
2017-11-10T04:06:11.441Z,7.87
2017-11-10T04:07:10.440Z,7.87
2017-11-10T04:08:11.021Z,7.87
2017-11-10T04:09:10.470Z,7.88
2017-11-10T04:10:10.830Z,7.87
2017-11-10T04:11:11.189Z,7.87
2017-11-10T04:12:10.719Z,7.88
2017-11-10T04:13:10.759Z,7.87
2017-11-10T04:14:11.389Z,7.88
2017-11-10T04:15:10.383Z,7.88
2017-11-10T04:16:10.464Z,7.88
2017-11-10T04:17:11.992Z,7.90
2017-11-10T04:18:10.298Z,7.88
2017-11-10T04:19:10.852Z,7.88
2017-11-10T04:20:11.000Z,7.88
2017-11-10T04:21:10.496Z,7.88
2017-11-10T04:22:11.184Z,7.88
2017-11-10T04:23:10.529Z,7.90
2017-11-10T04:24:10.636Z,7.90
2017-11-10T04:25:11.044Z,7.88
2017-11-10T04:26:10.384Z,7.90
2017-11-10T04:27:10.350Z,7.90
2017-11-10T04:28:11.201Z,7.90
2017-11-10T04:29:10.546Z,7.91
2017-11-10T04:30:10.598Z,7.91
2017-11-10T04:31:11.201Z,7.93
2017-11-10T04:32:10.237Z,7.93
2017-11-10T04:33:10.672Z,7.91
2017-11-10T04:34:10.890Z,7.91
2017-11-10T04:35:09.914Z,7.91
2017-11-10T04:36:09.918Z,7.91
2017-11-10T04:37:10.142Z,7.93
2017-11-10T04:38:11.043Z,7.93
2017-11-10T04:39:10.150Z,7.93
2017-11-10T04:40:10.612Z,7.93
2017-11-10T04:41:10.654Z,7.94
2017-11-10T04:42:11.278Z,7.95
2017-11-10T04:43:10.924Z,7.94
2017-11-10T04:44:10.532Z,7.94
2017-11-10T04:45:10.421Z,7.95
2017-11-10T04:46:10.328Z,7.94
2017-11-10T04:47:11.225Z,7.95
2017-11-10T04:48:10.884Z,7.95
2017-11-10T04:49:11.342Z,7.97
2017-11-10T04:50:10.815Z,7.95
2017-11-10T04:51:10.434Z,7.95
2017-11-10T04:52:10.861Z,7.97
2017-11-10T04:53:10.208Z,7.97
2017-11-10T04:54:10.046Z,7.97
2017-11-10T04:55:10.399Z,7.97
2017-11-10T04:56:09.846Z,7.97
2017-11-10T04:57:11.341Z,7.97
2017-11-10T04:58:11.448Z,7.98
2017-11-10T04:59:10.686Z,7.98
2017-11-10T05:00:11.222Z,7.98
2017-11-10T05:01:10.881Z,8.00
2017-11-10T05:02:10.175Z,7.98
2017-11-10T05:03:11.330Z,8.00
2017-11-10T05:04:10.393Z,8.00
2017-11-10T05:05:10.646Z,8.00
2017-11-10T05:06:10.702Z,8.01
2017-11-10T05:07:11.222Z,8.01
2017-11-10T05:08:10.837Z,8.00
2017-11-10T05:09:10.819Z,8.01
2017-11-10T05:10:10.125Z,8.01
2017-11-10T05:11:10.444Z,8.01
2017-11-10T05:12:10.114Z,8.03
2017-11-10T05:13:10.502Z,8.03
2017-11-10T05:14:10.550Z,8.03
2017-11-10T05:15:10.743Z,8.03
2017-11-10T05:16:10.975Z,8.05
2017-11-10T05:17:10.957Z,8.05
2017-11-10T05:18:10.481Z,8.06
2017-11-10T05:19:10.330Z,8.06
2017-11-10T05:20:10.866Z,8.05
2017-11-10T05:21:11.254Z,8.06
2017-11-10T05:22:11.091Z,8.05
2017-11-10T05:23:10.925Z,8.08
2017-11-10T05:24:10.330Z,8.08
2017-11-10T05:25:10.543Z,8.06
2017-11-10T05:26:10.486Z,8.08
2017-11-10T05:27:10.616Z,8.06
2017-11-10T05:28:10.939Z,8.08
2017-11-10T05:29:10.373Z,8.09
2017-11-10T05:30:10.025Z,8.09
2017-11-10T05:31:09.887Z,8.09
2017-11-10T05:32:10.314Z,8.09
2017-11-10T05:33:10.414Z,8.09
2017-11-10T05:34:11.285Z,8.08
2017-11-10T05:35:10.662Z,8.10
2017-11-10T05:36:10.937Z,8.09
2017-11-10T05:37:09.965Z,8.10
2017-11-10T05:38:11.398Z,8.09
2017-11-10T05:39:11.011Z,8.10
2017-11-10T05:40:10.701Z,8.10
2017-11-10T05:41:11.191Z,8.10
2017-11-10T05:42:10.156Z,8.10
2017-11-10T05:43:10.572Z,8.10
2017-11-10T05:44:11.453Z,8.12
2017-11-10T05:45:10.718Z,8.12
2017-11-10T05:46:11.151Z,8.10
2017-11-10T05:47:10.688Z,8.12
2017-11-10T05:48:11.062Z,8.10
2017-11-10T05:49:10.791Z,8.12
2017-11-10T05:50:10.625Z,8.12
2017-11-10T05:51:10.735Z,8.12
2017-11-10T05:52:10.941Z,8.12
2017-11-10T05:53:10.084Z,8.12
2017-11-10T05:54:10.399Z,8.12
2017-11-10T05:55:10.815Z,8.12
2017-11-10T05:56:10.025Z,8.12
2017-11-10T05:57:10.155Z,8.12
2017-11-10T05:58:10.117Z,8.13
2017-11-10T05:59:11.880Z,8.13
2017-11-10T06:00:11.264Z,8.13
2017-11-10T06:01:10.627Z,8.13
2017-11-10T06:02:11.604Z,8.13
2017-11-10T06:03:10.876Z,8.13
2017-11-10T06:04:10.357Z,8.13
2017-11-10T06:05:10.467Z,8.13
2017-11-10T06:06:12.650Z,8.13
2017-11-10T06:07:12.261Z,8.12
2017-11-10T06:08:10.437Z,8.13
2017-11-10T06:09:10.502Z,8.13
2017-11-10T06:10:10.800Z,8.12
2017-11-10T06:11:11.608Z,8.13
2017-11-10T06:12:11.342Z,8.13
2017-11-10T06:13:10.465Z,8.13
2017-11-10T06:14:10.877Z,8.15
2017-11-10T06:15:10.145Z,8.15
2017-11-10T06:16:10.549Z,8.15
2017-11-10T06:17:10.214Z,8.15
2017-11-10T06:18:10.661Z,8.13
2017-11-10T06:19:10.197Z,8.15
2017-11-10T06:20:10.456Z,8.15
2017-11-10T06:21:10.636Z,8.15
2017-11-10T06:22:11.462Z,8.16
2017-11-10T06:23:10.531Z,8.16
2017-11-10T06:24:10.273Z,8.16
2017-11-10T06:25:10.155Z,8.16
2017-11-10T06:26:10.781Z,8.16
2017-11-10T06:27:10.800Z,8.18
2017-11-10T06:28:11.339Z,8.18
2017-11-10T06:29:10.587Z,8.16
2017-11-10T06:30:11.107Z,8.18
2017-11-10T06:31:10.556Z,8.19
2017-11-10T06:32:10.900Z,8.18
2017-11-10T06:33:10.300Z,8.19
2017-11-10T06:34:10.997Z,8.19
2017-11-10T06:35:10.179Z,8.19
2017-11-10T06:36:10.253Z,8.20
2017-11-10T06:37:10.622Z,8.20
2017-11-10T06:38:11.157Z,8.20
2017-11-10T06:39:10.591Z,8.19
2017-11-10T06:40:11.242Z,8.23
2017-11-10T06:41:12.513Z,8.20
2017-11-10T06:42:10.422Z,8.20
2017-11-10T06:43:10.489Z,8.20
2017-11-10T06:44:11.440Z,8.23
2017-11-10T06:45:10.270Z,8.20
2017-11-10T06:46:12.043Z,8.24
2017-11-10T06:47:11.004Z,8.20
2017-11-10T06:48:10.950Z,8.23
2017-11-10T06:49:10.733Z,8.23
2017-11-10T06:50:11.150Z,8.23
2017-11-10T06:51:11.029Z,8.23
2017-11-10T06:52:10.044Z,8.24
2017-11-10T06:53:10.119Z,8.23
2017-11-10T06:54:11.146Z,8.24
2017-11-10T06:55:10.421Z,8.26
2017-11-10T06:56:10.476Z,8.24
2017-11-10T06:57:10.710Z,8.24
2017-11-10T06:58:10.053Z,8.26
2017-11-10T06:59:16.524Z,8.24
2017-11-10T07:00:11.397Z,8.24
2017-11-10T07:01:10.492Z,8.24
2017-11-10T07:02:10.443Z,8.26
2017-11-10T07:03:10.858Z,8.27
2017-11-10T07:04:11.093Z,8.27
2017-11-10T07:05:10.234Z,8.27
2017-11-10T07:06:10.887Z,8.27
2017-11-10T07:07:10.053Z,8.28
2017-11-10T07:08:10.533Z,8.28
2017-11-10T07:09:10.806Z,8.30
2017-11-10T07:10:10.846Z,8.28
2017-11-10T07:11:10.291Z,8.28
2017-11-10T07:12:10.721Z,8.30
2017-11-10T07:13:10.715Z,8.30
2017-11-10T07:14:11.584Z,8.31
2017-11-10T07:15:11.140Z,8.30
2017-11-10T07:16:10.741Z,8.31
2017-11-10T07:17:11.109Z,8.30
2017-11-10T07:18:10.374Z,8.31
2017-11-10T07:19:11.130Z,8.34
2017-11-10T07:20:10.745Z,8.34
2017-11-10T07:21:11.586Z,8.34
2017-11-10T07:22:11.253Z,8.36
2017-11-10T07:23:10.223Z,8.36
2017-11-10T07:24:10.536Z,8.36
2017-11-10T07:25:10.942Z,8.34
2017-11-10T07:26:10.415Z,8.36
2017-11-10T07:27:10.848Z,8.36
2017-11-10T07:28:10.753Z,8.33
2017-11-10T07:29:10.612Z,8.33
2017-11-10T07:30:10.783Z,8.36
2017-11-10T07:31:11.431Z,8.34
2017-11-10T07:32:10.644Z,8.36
2017-11-10T07:33:10.938Z,8.34
2017-11-10T07:34:09.794Z,8.34
2017-11-10T07:35:10.479Z,8.34
2017-11-10T07:36:11.504Z,8.33
2017-11-10T07:37:11.496Z,8.33
2017-11-10T07:38:11.132Z,8.33
2017-11-10T07:39:10.194Z,8.33
2017-11-10T07:40:10.851Z,8.33
2017-11-10T07:41:10.456Z,8.33
2017-11-10T07:42:10.261Z,8.33
2017-11-10T07:43:11.215Z,8.33
2017-11-10T07:44:10.777Z,8.33
2017-11-10T07:45:11.319Z,8.34
2017-11-10T07:46:10.846Z,8.33
2017-11-10T07:47:11.207Z,8.33
2017-11-10T07:48:11.011Z,8.33
2017-11-10T07:49:10.565Z,8.33
2017-11-10T07:50:09.928Z,8.33
2017-11-10T07:51:10.587Z,8.33
2017-11-10T07:52:11.049Z,8.33
2017-11-10T07:53:10.458Z,8.33
2017-11-10T07:54:10.861Z,8.31
2017-11-10T07:55:10.623Z,8.33
2017-11-10T07:56:10.703Z,8.31
2017-11-10T07:57:11.053Z,8.33
2017-11-10T07:58:10.883Z,8.33
2017-11-10T07:59:10.084Z,8.31
2017-11-10T08:00:10.875Z,8.33
2017-11-10T08:01:09.974Z,8.33
2017-11-10T08:02:09.952Z,8.31
2017-11-10T08:03:11.268Z,8.31
2017-11-10T08:04:10.947Z,8.31
2017-11-10T08:05:10.511Z,8.31
2017-11-10T08:06:11.110Z,8.33
2017-11-10T08:07:10.692Z,8.33
2017-11-10T08:08:10.253Z,8.31
2017-11-10T08:09:10.971Z,8.31
2017-11-10T08:10:10.736Z,8.33
2017-11-10T08:11:10.874Z,8.33
2017-11-10T08:12:10.410Z,8.31
2017-11-10T08:13:11.103Z,8.31
2017-11-10T08:14:10.978Z,8.31
2017-11-10T08:15:10.437Z,8.31
2017-11-10T08:16:11.118Z,8.33
2017-11-10T08:17:10.298Z,8.31
2017-11-10T08:18:10.541Z,8.33
2017-11-10T08:19:11.476Z,8.31
2017-11-10T08:20:11.265Z,8.33
2017-11-10T08:21:10.413Z,8.33
2017-11-10T08:22:10.348Z,8.34
2017-11-10T08:23:10.903Z,8.34
2017-11-10T08:24:10.551Z,8.37
2017-11-10T08:25:11.553Z,8.37
2017-11-10T08:26:10.522Z,8.44
2017-11-10T08:27:11.104Z,8.48
2017-11-10T08:28:10.685Z,8.48
2017-11-10T08:29:10.621Z,8.46
2017-11-10T08:30:11.234Z,8.46
2017-11-10T08:31:10.879Z,8.46
2017-11-10T08:32:10.076Z,8.45
2017-11-10T08:33:10.683Z,8.42
2017-11-10T08:34:10.686Z,8.42
2017-11-10T08:35:11.369Z,8.44
2017-11-10T08:36:11.123Z,8.42
2017-11-10T08:37:10.953Z,8.41
2017-11-10T08:38:10.141Z,8.42
2017-11-10T08:39:10.505Z,8.41
2017-11-10T08:40:10.980Z,8.41
2017-11-10T08:41:10.400Z,8.41
2017-11-10T08:42:10.809Z,8.42
2017-11-10T08:43:11.317Z,8.38
2017-11-10T08:44:10.454Z,8.42
2017-11-10T08:45:10.919Z,8.41
2017-11-10T08:46:10.295Z,8.45
2017-11-10T08:47:11.183Z,8.49
2017-11-10T08:48:10.815Z,8.53
2017-11-10T08:49:11.455Z,8.55
2017-11-10T08:50:11.094Z,8.58
2017-11-10T08:51:10.872Z,8.63
2017-11-10T08:52:10.922Z,8.63
2017-11-10T08:53:10.134Z,8.64
2017-11-10T08:54:10.862Z,8.67
2017-11-10T08:55:10.980Z,8.69
2017-11-10T08:56:10.623Z,8.67
2017-11-10T08:57:10.748Z,8.67
2017-11-10T08:58:10.884Z,8.69
2017-11-10T08:59:10.544Z,8.69
2017-11-10T09:00:10.568Z,8.69
2017-11-10T09:01:11.314Z,8.67
2017-11-10T09:02:10.772Z,8.66
2017-11-10T09:03:10.919Z,8.63
2017-11-10T09:04:10.469Z,8.63
2017-11-10T09:05:10.874Z,8.63
2017-11-10T09:06:09.859Z,8.63
2017-11-10T09:07:10.362Z,8.61
2017-11-10T09:08:10.347Z,8.60
2017-11-10T09:09:10.870Z,8.60
2017-11-10T09:10:09.878Z,8.58
2017-11-10T09:11:10.314Z,8.60
2017-11-10T09:12:11.239Z,8.58
2017-11-10T09:13:10.262Z,8.56
2017-11-10T09:14:10.128Z,8.53
2017-11-10T09:15:10.371Z,8.52
2017-11-10T09:16:10.347Z,8.52
2017-11-10T09:17:10.377Z,8.53
2017-11-10T09:18:10.761Z,8.52
2017-11-10T09:19:11.526Z,8.52
2017-11-10T09:20:11.806Z,8.52
2017-11-10T09:21:09.806Z,8.51
2017-11-10T09:22:10.678Z,8.51
2017-11-10T09:23:11.246Z,8.51
2017-11-10T09:24:10.225Z,8.51
2017-11-10T09:25:10.684Z,8.53
2017-11-10T09:26:10.766Z,8.53
2017-11-10T09:27:11.085Z,8.52
2017-11-10T09:28:10.874Z,8.51
2017-11-10T09:29:11.134Z,8.52
2017-11-10T09:30:10.671Z,8.51
2017-11-10T09:31:10.102Z,8.51
2017-11-10T09:32:10.855Z,8.52
2017-11-10T09:33:11.399Z,8.52
2017-11-10T09:34:11.288Z,8.53
2017-11-10T09:35:10.780Z,8.53
2017-11-10T09:36:11.053Z,8.53
2017-11-10T09:37:11.425Z,8.55
2017-11-10T09:38:11.163Z,8.56
2017-11-10T09:39:11.113Z,8.56
2017-11-10T09:40:11.158Z,8.60
2017-11-10T09:41:10.760Z,8.61
2017-11-10T09:42:11.016Z,8.64
2017-11-10T09:43:10.494Z,8.61
2017-11-10T09:44:11.474Z,8.60
2017-11-10T09:45:10.541Z,8.60
2017-11-10T09:46:10.632Z,8.60
2017-11-10T09:47:11.071Z,8.58
2017-11-10T09:48:10.655Z,8.58
2017-11-10T09:49:11.634Z,8.60
2017-11-10T09:50:11.584Z,8.60
2017-11-10T09:51:10.766Z,8.60
2017-11-10T09:52:11.641Z,8.58
2017-11-10T09:53:10.950Z,8.61
2017-11-10T09:54:10.100Z,8.61
2017-11-10T09:55:11.801Z,8.61
2017-11-10T09:56:10.915Z,8.61
2017-11-10T09:57:10.490Z,8.60
2017-11-10T09:58:11.274Z,8.60
2017-11-10T09:59:10.049Z,8.58
2017-11-10T10:00:11.278Z,8.61
2017-11-10T10:01:11.078Z,8.64
2017-11-10T10:02:10.589Z,8.66
2017-11-10T10:03:11.752Z,8.67
2017-11-10T10:04:10.390Z,8.73
2017-11-10T10:05:10.643Z,8.78
2017-11-10T10:06:11.305Z,8.78
2017-11-10T10:07:10.465Z,8.73
2017-11-10T10:08:10.696Z,8.73
2017-11-10T10:09:11.007Z,8.73
2017-11-10T10:10:10.937Z,8.73
2017-11-10T10:11:10.228Z,8.73
2017-11-10T10:12:11.250Z,8.71
2017-11-10T10:13:11.685Z,8.71
2017-11-10T10:14:10.851Z,8.69
2017-11-10T10:15:10.631Z,8.69
2017-11-10T10:16:10.888Z,8.67
2017-11-10T10:17:10.568Z,8.66
2017-11-10T10:18:11.615Z,8.66
2017-11-10T10:19:10.733Z,8.69
2017-11-10T10:20:10.584Z,8.70
2017-11-10T10:21:11.208Z,8.76
2017-11-10T10:22:10.774Z,8.81
2017-11-10T10:23:11.331Z,8.87
2017-11-10T10:24:11.554Z,8.89
2017-11-10T10:25:11.205Z,8.97
2017-11-10T10:26:10.669Z,9.00
2017-11-10T10:27:09.900Z,8.97
2017-11-10T10:28:11.246Z,8.99
2017-11-10T10:29:11.781Z,8.97
2017-11-10T10:30:10.530Z,8.99
2017-11-10T10:31:11.199Z,8.95
2017-11-10T10:32:10.438Z,8.92
2017-11-10T10:33:10.910Z,8.89
2017-11-10T10:34:10.574Z,8.87
2017-11-10T10:35:11.471Z,8.82
2017-11-10T10:36:10.704Z,8.82
2017-11-10T10:37:10.869Z,8.84
2017-11-10T10:38:10.380Z,8.84
2017-11-10T10:39:11.134Z,8.85
2017-11-10T10:40:10.420Z,8.87
2017-11-10T10:41:10.880Z,8.84
2017-11-10T10:42:09.994Z,8.84
2017-11-10T10:43:10.316Z,8.82
2017-11-10T10:44:11.139Z,8.84
2017-11-10T10:45:10.400Z,8.85
2017-11-10T10:46:11.268Z,8.85
2017-11-10T10:47:10.392Z,8.88
2017-11-10T10:48:11.241Z,8.94
2017-11-10T10:49:10.803Z,8.95
2017-11-10T10:50:11.284Z,9.00
2017-11-10T10:51:11.109Z,9.11
2017-11-10T10:52:10.547Z,9.16
2017-11-10T10:53:10.925Z,9.14
2017-11-10T10:54:09.979Z,9.18
2017-11-10T10:55:10.335Z,9.19
2017-11-10T10:56:11.407Z,9.25
2017-11-10T10:57:10.956Z,9.25
2017-11-10T10:58:11.108Z,9.21
2017-11-10T10:59:10.788Z,9.19
2017-11-10T11:00:11.362Z,9.14
2017-11-10T11:01:10.931Z,9.16
2017-11-10T11:02:10.624Z,9.18
2017-11-10T11:03:11.215Z,9.21
2017-11-10T11:04:10.613Z,9.21
2017-11-10T11:05:11.113Z,9.18
2017-11-10T11:06:10.900Z,9.14
2017-11-10T11:07:11.631Z,9.14
2017-11-10T11:08:10.013Z,9.18
2017-11-10T11:09:10.210Z,9.14
2017-11-10T11:10:10.604Z,9.19
2017-11-10T11:11:11.263Z,9.21
2017-11-10T11:12:11.493Z,9.19
2017-11-10T11:13:10.818Z,9.19
2017-11-10T11:14:11.395Z,9.19
2017-11-10T11:15:11.005Z,9.21
2017-11-10T11:16:10.628Z,9.22
2017-11-10T11:17:12.018Z,9.21
2017-11-10T11:18:10.342Z,9.18
2017-11-10T11:19:09.981Z,9.13
2017-11-10T11:20:10.532Z,9.08
2017-11-10T11:21:10.885Z,9.11
2017-11-10T11:22:10.299Z,9.13
2017-11-10T11:23:11.155Z,9.16
2017-11-10T11:24:10.397Z,9.13
2017-11-10T11:25:11.185Z,9.16
2017-11-10T11:26:10.770Z,9.18
2017-11-10T11:27:11.112Z,9.19
2017-11-10T11:28:11.131Z,9.19
2017-11-10T11:29:10.684Z,9.18
2017-11-10T11:30:11.967Z,9.18
2017-11-10T11:31:10.643Z,9.16
2017-11-10T11:32:10.935Z,9.18
2017-11-10T11:33:10.449Z,9.19
2017-11-10T11:34:10.981Z,9.18
2017-11-10T11:35:11.132Z,9.22
2017-11-10T11:36:10.317Z,9.23
2017-11-10T11:37:10.907Z,9.25
2017-11-10T11:38:10.806Z,9.26
2017-11-10T11:39:11.115Z,9.25
2017-11-10T11:40:10.688Z,9.23
2017-11-10T11:41:11.030Z,9.22
2017-11-10T11:42:10.283Z,9.19
2017-11-10T11:43:10.904Z,9.18
2017-11-10T11:44:10.131Z,9.18
2017-11-10T11:45:12.704Z,9.14
2017-11-10T11:46:10.855Z,9.11
2017-11-10T11:47:10.437Z,9.10
2017-11-10T11:48:11.123Z,9.08
2017-11-10T11:49:10.784Z,9.13
2017-11-10T11:50:11.286Z,9.13
2017-11-10T11:51:10.840Z,9.16
2017-11-10T11:52:14.194Z,9.13
2017-11-10T11:53:10.974Z,9.08
2017-11-10T11:54:10.500Z,9.03
2017-11-10T11:55:10.796Z,9.03
2017-11-10T11:56:11.244Z,9.02
2017-11-10T11:57:11.056Z,9.00
2017-11-10T11:58:10.352Z,9.00
2017-11-10T11:59:11.841Z,8.97
2017-11-10T12:00:10.191Z,8.97
2017-11-10T12:01:10.869Z,8.97
2017-11-10T12:02:09.898Z,8.97
2017-11-10T12:03:10.671Z,8.99
2017-11-10T12:04:11.281Z,8.99
2017-11-10T12:05:11.302Z,8.95
2017-11-10T12:06:10.413Z,8.94
2017-11-10T12:07:10.718Z,8.92
2017-11-10T12:08:10.971Z,8.92
2017-11-10T12:09:10.611Z,8.91
2017-11-10T12:10:11.806Z,8.92
2017-11-10T12:11:10.571Z,8.92
2017-11-10T12:12:12.015Z,8.95
2017-11-10T12:13:11.397Z,8.95
2017-11-10T12:14:11.087Z,8.92
2017-11-10T12:15:11.934Z,8.94
2017-11-10T12:16:10.420Z,8.95
2017-11-10T12:17:11.803Z,9.03
2017-11-10T12:18:12.137Z,9.11
2017-11-10T12:19:10.763Z,9.18
2017-11-10T12:20:13.377Z,9.25
2017-11-10T12:21:10.957Z,9.31
2017-11-10T12:22:10.815Z,9.37
2017-11-10T12:23:10.436Z,9.44
2017-11-10T12:24:11.310Z,9.44
2017-11-10T12:25:10.997Z,9.41
2017-11-10T12:26:11.253Z,9.47
2017-11-10T12:27:11.078Z,9.50
2017-11-10T12:28:10.690Z,9.51
2017-11-10T12:29:11.856Z,9.48
2017-11-10T12:30:13.830Z,9.51
2017-11-10T12:31:11.875Z,9.55
2017-11-10T12:32:11.800Z,9.48
2017-11-10T12:33:10.987Z,9.46
2017-11-10T12:34:10.592Z,9.41
2017-11-10T12:35:11.340Z,9.43
2017-11-10T12:36:11.296Z,9.39
2017-11-10T12:37:11.209Z,9.34
2017-11-10T12:38:10.158Z,9.32
2017-11-10T12:39:10.952Z,9.29
2017-11-10T12:40:11.193Z,9.26
2017-11-10T12:41:10.493Z,9.26
2017-11-10T12:42:11.249Z,9.23
2017-11-10T12:43:10.988Z,9.23
2017-11-10T12:44:10.080Z,9.23
2017-11-10T12:45:10.279Z,9.23
2017-11-10T12:46:10.418Z,9.23
2017-11-10T12:47:10.899Z,9.22
2017-11-10T12:48:10.079Z,9.22
2017-11-10T12:49:10.218Z,9.22
2017-11-10T12:50:10.662Z,9.19
2017-11-10T12:51:12.091Z,9.19
2017-11-10T12:52:10.950Z,9.22
2017-11-10T12:53:10.502Z,9.25
2017-11-10T12:54:11.237Z,9.25
2017-11-10T12:55:11.406Z,9.25
2017-11-10T12:56:11.283Z,9.25
2017-11-10T12:57:11.764Z,9.23
2017-11-10T12:58:10.901Z,9.22
2017-11-10T12:59:10.017Z,9.19
2017-11-10T13:00:10.780Z,9.16
2017-11-10T13:01:10.563Z,9.14
2017-11-10T13:02:11.294Z,9.06
2017-11-10T13:03:11.489Z,9.06
2017-11-10T13:04:11.513Z,9.10
2017-11-10T13:05:10.845Z,9.10
2017-11-10T13:06:10.692Z,9.08
2017-11-10T13:07:10.910Z,9.04
2017-11-10T13:08:11.820Z,9.03
2017-11-10T13:09:10.496Z,9.04
2017-11-10T13:10:10.807Z,9.03
2017-11-10T13:11:10.839Z,9.06
2017-11-10T13:12:11.415Z,9.16
2017-11-10T13:13:11.308Z,9.22
2017-11-10T13:14:11.767Z,9.34
2017-11-10T13:15:10.876Z,9.41
2017-11-10T13:16:10.965Z,9.47
2017-11-10T13:17:10.138Z,9.50
2017-11-10T13:18:11.600Z,9.55